createdAt,value
2017-10-04T00:01:37.188Z,87.81
2017-10-04T00:04:12.010Z,88.03
2017-10-04T00:06:46.797Z,88.18
2017-10-04T00:09:22.358Z,87.97
2017-10-04T00:11:56.978Z,87.96
2017-10-04T00:14:31.638Z,87.96
2017-10-04T00:17:06.301Z,88.03
2017-10-04T00:19:40.960Z,88.09
2017-10-04T00:22:15.730Z,87.95
2017-10-04T00:24:52.074Z,87.88
2017-10-04T00:27:26.694Z,88.08
2017-10-04T00:30:01.297Z,88.22
2017-10-04T00:32:35.952Z,88.23
2017-10-04T00:35:10.303Z,88.47
2017-10-04T00:37:45.358Z,88.81
2017-10-04T00:40:19.964Z,88.74
2017-10-04T00:42:55.610Z,88.76
2017-10-04T00:45:30.162Z,88.74
2017-10-04T00:48:04.794Z,88.51
2017-10-04T00:50:39.570Z,87.95
2017-10-04T00:53:14.227Z,88.15
2017-10-04T00:55:48.510Z,87.79
2017-10-04T00:58:23.215Z,87.86
2017-10-04T01:00:58.135Z,87.96
2017-10-04T01:03:33.016Z,87.82
2017-10-04T01:06:07.571Z,87.74
2017-10-04T01:08:42.154Z,87.69
2017-10-04T01:11:16.462Z,87.26
2017-10-04T01:13:51.430Z,87.16
2017-10-04T01:16:26.967Z,87.29
2017-10-04T01:19:01.265Z,87.32
2017-10-04T01:21:35.941Z,87.07
2017-10-04T01:24:11.037Z,87.29
2017-10-04T01:26:45.614Z,87.14
2017-10-04T01:29:20.397Z,87.00
2017-10-04T01:31:55.253Z,86.96
2017-10-04T01:34:29.905Z,87.06
2017-10-04T01:37:05.473Z,87.01
2017-10-04T01:39:40.058Z,87.13
2017-10-04T01:42:14.670Z,87.30
2017-10-04T01:44:49.293Z,87.16
2017-10-04T01:47:23.922Z,86.96
2017-10-04T01:49:58.506Z,86.81
2017-10-04T01:52:33.104Z,86.36
2017-10-04T01:55:07.762Z,86.73
2017-10-04T01:57:42.492Z,86.75
2017-10-04T02:00:16.938Z,86.72
2017-10-04T02:02:52.602Z,86.62
2017-10-04T02:05:27.218Z,86.72
2017-10-04T02:08:02.993Z,86.84
2017-10-04T02:10:37.602Z,86.96
2017-10-04T02:13:12.270Z,86.94
2017-10-04T02:15:46.906Z,86.99
2017-10-04T02:18:21.739Z,86.93
2017-10-04T02:20:56.385Z,86.81
2017-10-04T02:23:32.154Z,86.45
2017-10-04T02:26:06.829Z,86.60
2017-10-04T02:28:42.436Z,86.83
2017-10-04T02:31:19.161Z,86.87
2017-10-04T02:33:54.721Z,86.89
2017-10-04T02:36:29.342Z,86.89
2017-10-04T02:39:03.401Z,87.09
2017-10-04T02:41:38.546Z,87.12
2017-10-04T02:44:13.191Z,86.87
2017-10-04T02:46:48.618Z,87.02
2017-10-04T02:49:23.362Z,87.01
2017-10-04T02:51:57.939Z,86.99
2017-10-04T02:54:33.441Z,87.35
2017-10-04T02:57:08.113Z,87.30
2017-10-04T02:59:42.826Z,87.56
2017-10-04T03:02:17.569Z,87.65
2017-10-04T03:04:52.406Z,88.25
2017-10-04T03:07:27.050Z,87.94
2017-10-04T03:10:01.706Z,88.14
2017-10-04T03:12:36.329Z,88.14
2017-10-04T03:15:11.013Z,87.95
2017-10-04T03:17:45.673Z,87.89
2017-10-04T03:20:20.242Z,87.79
2017-10-04T03:22:54.922Z,88.02
2017-10-04T03:25:29.521Z,88.25
2017-10-04T03:28:04.193Z,87.72
2017-10-04T03:30:38.802Z,87.73
2017-10-04T03:33:13.461Z,87.27
2017-10-04T03:35:48.262Z,87.12
2017-10-04T03:38:22.921Z,86.69
2017-10-04T03:40:57.649Z,87.01
2017-10-04T03:43:32.349Z,86.97
2017-10-04T03:46:08.114Z,86.79
2017-10-04T03:48:42.737Z,86.63
2017-10-04T03:51:17.537Z,86.21
2017-10-04T03:53:51.981Z,86.28
2017-10-04T03:56:26.737Z,85.80
2017-10-04T03:59:01.417Z,85.99
2017-10-04T04:01:36.166Z,86.28
2017-10-04T04:04:10.766Z,86.19
2017-10-04T04:06:45.539Z,86.40
2017-10-04T04:09:19.981Z,86.65
2017-10-04T04:11:54.625Z,86.54
2017-10-04T04:14:29.290Z,86.59
2017-10-04T04:17:04.037Z,86.34
2017-10-04T04:19:38.625Z,86.77
2017-10-04T04:22:13.238Z,87.06
2017-10-04T04:24:47.957Z,86.91
2017-10-04T04:27:22.550Z,86.84
2017-10-04T04:29:57.389Z,86.58
2017-10-04T04:32:31.999Z,86.76
2017-10-04T04:35:06.622Z,86.30
2017-10-04T04:37:40.688Z,86.65
2017-10-04T04:40:15.674Z,86.94
2017-10-04T04:42:51.597Z,86.90
2017-10-04T04:45:26.754Z,86.67
2017-10-04T04:48:01.458Z,86.56
2017-10-04T04:50:36.110Z,86.70
2017-10-04T04:53:10.700Z,86.43
2017-10-04T04:55:45.338Z,86.74
2017-10-04T04:58:20.243Z,88.37
2017-10-04T05:00:55.017Z,85.25
2017-10-04T05:03:29.602Z,85.47
2017-10-04T05:06:04.178Z,85.53
2017-10-04T05:08:39.002Z,85.70
2017-10-04T05:11:13.978Z,85.43
2017-10-04T05:13:48.467Z,85.70
2017-10-04T05:16:23.114Z,85.87
2017-10-04T05:18:58.777Z,85.77
2017-10-04T05:21:33.402Z,85.77
2017-10-04T05:24:08.201Z,85.90
2017-10-04T05:26:42.930Z,86.10
2017-10-04T05:29:17.569Z,85.88
2017-10-04T05:31:52.233Z,85.98
2017-10-04T05:34:27.026Z,85.52
2017-10-04T05:37:01.717Z,85.93
2017-10-04T05:39:36.693Z,85.73
2017-10-04T05:42:11.101Z,85.94
2017-10-04T05:44:45.857Z,86.08
2017-10-04T05:47:20.577Z,85.65
2017-10-04T05:49:55.391Z,85.62
2017-10-04T05:52:31.050Z,85.20
2017-10-04T05:55:05.777Z,84.72
2017-10-04T05:57:40.212Z,84.79
2017-10-04T06:00:14.951Z,85.06
2017-10-04T06:02:49.778Z,85.02
2017-10-04T06:05:24.518Z,85.20
2017-10-04T06:07:59.078Z,85.33
2017-10-04T06:10:33.834Z,85.02
2017-10-04T06:13:08.358Z,84.82
2017-10-04T06:15:43.093Z,84.17
2017-10-04T06:18:17.698Z,84.28
2017-10-04T06:20:53.390Z,83.41
2017-10-04T06:23:28.073Z,83.78
2017-10-04T06:26:02.953Z,83.34
2017-10-04T06:28:37.602Z,83.60
2017-10-04T06:31:12.285Z,83.63
2017-10-04T06:33:47.066Z,83.61
2017-10-04T06:36:21.794Z,83.42
2017-10-04T06:38:56.474Z,83.44
2017-10-04T06:41:31.221Z,83.18
2017-10-04T06:44:05.708Z,82.98
2017-10-04T06:46:40.431Z,82.99
2017-10-04T06:49:15.065Z,83.19
2017-10-04T06:51:49.914Z,82.12
2017-10-04T06:54:24.594Z,82.27
2017-10-04T06:56:59.194Z,82.43
2017-10-04T06:59:33.748Z,81.57
2017-10-04T07:02:08.454Z,81.35
2017-10-04T07:04:43.234Z,81.17
2017-10-04T07:07:18.925Z,79.92
2017-10-04T07:09:53.589Z,79.67
2017-10-04T07:12:28.266Z,79.31
2017-10-04T07:15:02.870Z,79.59
2017-10-04T07:17:37.545Z,79.01
2017-10-04T07:20:12.025Z,78.92
2017-10-04T07:22:46.770Z,78.49
2017-10-04T07:25:21.457Z,77.87
2017-10-04T07:27:56.632Z,77.93
2017-10-04T07:30:31.691Z,76.91
2017-10-04T07:33:06.377Z,76.95
2017-10-04T07:35:41.069Z,77.10
2017-10-04T07:38:15.958Z,77.27
2017-10-04T07:40:50.661Z,77.38
2017-10-04T07:43:25.402Z,76.66
2017-10-04T07:45:59.858Z,75.94
2017-10-04T07:48:34.586Z,75.87
2017-10-04T07:51:09.218Z,76.07
2017-10-04T07:53:43.770Z,75.75
2017-10-04T07:56:18.217Z,75.81
2017-10-04T07:58:53.078Z,76.45
2017-10-04T08:01:27.854Z,75.10
2017-10-04T08:04:02.709Z,75.52
2017-10-04T08:06:37.385Z,75.95
2017-10-04T08:09:12.117Z,75.18
2017-10-04T08:11:46.797Z,75.52
2017-10-04T08:14:21.449Z,74.82
2017-10-04T08:16:56.022Z,75.26
2017-10-04T08:19:30.783Z,74.31
2017-10-04T08:22:05.330Z,75.22
2017-10-04T08:24:39.877Z,74.67
2017-10-04T08:27:14.861Z,74.87
2017-10-04T08:29:49.566Z,75.37
2017-10-04T08:32:24.021Z,75.66
2017-10-04T08:34:58.793Z,75.81
2017-10-04T08:37:33.500Z,74.84
2017-10-04T08:40:08.211Z,75.33
2017-10-04T08:42:43.085Z,75.81
2017-10-04T08:57:08.919Z,75.17
2017-10-04T08:59:43.676Z,75.50
2017-10-04T09:02:18.301Z,75.88
2017-10-04T09:05:04.040Z,76.20
2017-10-04T09:07:38.679Z,75.88
2017-10-04T09:10:13.403Z,75.53
2017-10-04T09:12:48.173Z,74.91
2017-10-04T09:15:22.959Z,75.26
2017-10-04T09:17:57.791Z,75.20
2017-10-04T09:20:32.616Z,74.97
2017-10-04T09:23:07.356Z,75.03
2017-10-04T09:25:42.063Z,75.73
2017-10-04T09:28:16.878Z,74.87
2017-10-04T09:30:52.135Z,75.00
2017-10-04T09:33:27.484Z,74.98
2017-10-04T09:36:02.260Z,74.50
2017-10-04T09:38:36.873Z,75.08
2017-10-04T09:41:11.776Z,74.95
2017-10-04T09:43:46.381Z,74.90
2017-10-04T09:46:21.192Z,75.52
2017-10-04T09:48:55.696Z,73.94
2017-10-04T09:51:30.508Z,74.73
2017-10-04T09:54:05.343Z,74.66
2017-10-04T09:56:39.988Z,73.69
2017-10-04T09:59:15.473Z,73.93
2017-10-04T10:01:50.253Z,72.42
2017-10-04T10:04:24.975Z,72.85
2017-10-04T10:06:59.736Z,72.76
2017-10-04T10:09:34.384Z,73.07
2017-10-04T10:12:10.181Z,73.42
2017-10-04T10:14:44.832Z,72.86
2017-10-04T10:17:19.620Z,72.01
2017-10-04T10:19:54.347Z,72.00
2017-10-04T10:22:29.007Z,72.48
2017-10-04T10:25:03.599Z,72.97
2017-10-04T10:27:38.460Z,73.21
2017-10-04T10:30:13.218Z,71.89
2017-10-04T10:32:47.999Z,72.18
2017-10-04T10:35:22.700Z,71.69
2017-10-04T10:37:57.496Z,72.15
2017-10-04T10:40:32.132Z,72.78
2017-10-04T10:43:06.956Z,71.69
2017-10-04T10:45:41.501Z,72.01
2017-10-04T10:48:16.326Z,71.88
2017-10-04T10:50:51.068Z,71.19
2017-10-04T10:53:25.812Z,71.78
2017-10-04T10:56:00.450Z,71.70
2017-10-04T10:58:35.232Z,71.54
2017-10-04T11:01:09.945Z,71.92
2017-10-04T11:03:44.296Z,71.88
2017-10-04T11:06:19.068Z,71.74
2017-10-04T11:08:53.817Z,72.06
2017-10-04T11:11:28.500Z,72.05
2017-10-04T11:14:03.349Z,71.05
2017-10-04T11:16:37.919Z,70.85
2017-10-04T11:19:12.556Z,71.35
2017-10-04T11:21:47.239Z,72.19
2017-10-04T11:24:21.855Z,70.60
2017-10-04T11:26:56.564Z,70.87
2017-10-04T11:29:31.232Z,71.17
2017-10-04T11:32:05.664Z,72.42
2017-10-04T11:34:40.308Z,72.06
2017-10-04T11:37:15.024Z,71.54
2017-10-04T11:39:49.674Z,71.34
2017-10-04T11:42:24.450Z,72.12
2017-10-04T11:44:59.296Z,72.58
2017-10-04T11:47:34.017Z,72.30
2017-10-04T11:50:08.745Z,71.93
2017-10-04T11:52:43.433Z,70.96
2017-10-04T11:55:18.152Z,71.72
2017-10-04T11:57:52.824Z,71.97
2017-10-04T12:00:27.615Z,71.90
2017-10-04T12:03:02.288Z,71.95
2017-10-04T12:05:37.019Z,72.02
2017-10-04T12:08:11.844Z,72.54
2017-10-04T12:10:46.612Z,73.14
2017-10-04T12:13:21.157Z,72.66
2017-10-04T12:15:55.967Z,72.94
2017-10-04T12:18:30.508Z,72.62
2017-10-04T12:21:05.143Z,72.75
2017-10-04T12:23:39.817Z,71.84
2017-10-04T12:26:14.360Z,71.40
2017-10-04T12:28:48.824Z,72.40
2017-10-04T12:31:23.517Z,72.62
2017-10-04T12:33:58.200Z,72.74
2017-10-04T12:36:32.968Z,72.84
2017-10-04T12:39:07.453Z,72.40
2017-10-04T12:41:42.178Z,72.38
2017-10-04T12:44:16.811Z,72.53
2017-10-04T12:46:51.368Z,72.69
2017-10-04T12:49:26.928Z,73.25
2017-10-04T12:52:01.561Z,71.82
2017-10-04T12:54:36.308Z,72.51
2017-10-04T12:57:10.981Z,72.20
2017-10-04T12:59:45.740Z,72.90
2017-10-04T13:02:20.483Z,72.20
2017-10-04T13:04:55.116Z,71.79
2017-10-04T13:07:30.000Z,72.19
2017-10-04T13:10:04.728Z,72.58
2017-10-04T13:12:40.535Z,72.51
2017-10-04T13:15:15.193Z,71.81
2017-10-04T13:17:49.736Z,71.94
2017-10-04T13:20:24.231Z,71.80
2017-10-04T13:22:58.920Z,72.46
2017-10-04T13:25:33.434Z,72.47
2017-10-04T13:28:08.001Z,72.23
2017-10-04T13:30:42.723Z,72.51
2017-10-04T13:33:17.110Z,72.17
2017-10-04T13:35:51.826Z,72.04
2017-10-04T13:38:27.119Z,72.32
2017-10-04T13:41:01.897Z,71.61
2017-10-04T13:43:36.624Z,72.59
2017-10-04T13:46:11.131Z,72.75
2017-10-04T13:48:45.658Z,72.11
2017-10-04T13:51:20.281Z,72.94
2017-10-04T13:53:55.157Z,73.21
2017-10-04T13:56:29.927Z,72.23
2017-10-04T13:59:04.710Z,72.77
2017-10-04T14:01:39.492Z,72.57
2017-10-04T14:04:14.016Z,73.08
2017-10-04T14:06:48.752Z,72.75
2017-10-04T14:09:23.384Z,73.94
2017-10-04T14:11:57.905Z,73.09
2017-10-04T14:14:32.665Z,73.54
2017-10-04T14:17:07.375Z,73.71
2017-10-04T14:19:42.094Z,73.78
2017-10-04T14:22:22.189Z,74.27
2017-10-04T14:24:56.656Z,74.08
2017-10-04T14:27:31.195Z,73.67
2017-10-04T14:30:05.956Z,73.18
2017-10-04T14:32:40.572Z,73.30
2017-10-04T14:35:15.367Z,73.69
2017-10-04T14:37:50.056Z,73.46
2017-10-04T14:40:24.732Z,73.22
2017-10-04T14:42:59.378Z,73.49
2017-10-04T14:45:33.980Z,74.04
2017-10-04T14:48:09.543Z,74.28
2017-10-04T14:50:44.073Z,73.25
2017-10-04T14:53:18.727Z,73.70
2017-10-04T14:55:53.299Z,73.98
2017-10-04T14:58:28.103Z,74.05
2017-10-04T15:01:02.848Z,74.10
2017-10-04T15:03:38.529Z,73.68
2017-10-04T15:06:13.191Z,74.38
2017-10-04T15:08:47.903Z,74.13
2017-10-04T15:11:22.491Z,73.97
2017-10-04T15:13:57.440Z,74.42
2017-10-04T15:16:31.947Z,74.89
2017-10-04T15:19:06.618Z,74.64
2017-10-04T15:21:41.331Z,74.94
2017-10-04T15:24:15.968Z,74.71
2017-10-04T15:26:50.391Z,74.49
2017-10-04T15:29:24.963Z,74.65
2017-10-04T15:31:59.808Z,75.40
2017-10-04T15:34:34.489Z,75.22
2017-10-04T15:37:09.199Z,75.20
2017-10-04T15:39:43.665Z,75.73
2017-10-04T15:42:18.663Z,75.69
2017-10-04T15:44:53.497Z,75.98
2017-10-04T15:47:28.090Z,75.82
2017-10-04T15:50:02.748Z,75.97
2017-10-04T15:52:37.423Z,75.73
2017-10-04T15:55:11.904Z,75.91
2017-10-04T15:57:46.609Z,76.29
2017-10-04T16:00:21.352Z,75.87
2017-10-04T16:02:56.126Z,76.43
2017-10-04T16:05:30.958Z,76.67
2017-10-04T16:08:05.516Z,76.34
2017-10-04T16:10:40.276Z,75.93
2017-10-04T16:13:15.110Z,76.08
2017-10-04T16:15:49.834Z,75.85
2017-10-04T16:18:24.634Z,75.64
2017-10-04T16:20:59.396Z,75.92
2017-10-04T16:23:34.043Z,75.57
2017-10-04T16:26:08.717Z,75.17
2017-10-04T16:28:43.272Z,75.18
2017-10-04T16:31:17.905Z,74.96
2017-10-04T16:33:52.683Z,75.05
2017-10-04T16:36:27.331Z,74.35
2017-10-04T16:39:01.751Z,75.18
2017-10-04T16:41:36.268Z,75.27
2017-10-04T16:44:10.903Z,75.52
2017-10-04T16:46:45.610Z,75.53
2017-10-04T16:49:20.277Z,75.50
2017-10-04T16:51:54.828Z,75.73
2017-10-04T16:54:29.357Z,75.65
2017-10-04T16:57:04.163Z,75.69
2017-10-04T16:59:38.763Z,75.10
2017-10-04T17:02:13.592Z,75.20
2017-10-04T17:04:48.228Z,75.07
2017-10-04T17:07:22.873Z,74.70
2017-10-04T17:09:57.458Z,74.92
2017-10-04T17:12:32.134Z,75.11
2017-10-04T17:15:06.828Z,75.11
2017-10-04T17:17:41.560Z,75.12
2017-10-04T17:20:16.332Z,74.96
2017-10-04T17:22:52.412Z,75.04
2017-10-04T17:25:27.809Z,75.08
2017-10-04T17:28:02.335Z,75.18
2017-10-04T17:30:37.096Z,75.29
2017-10-04T17:33:11.677Z,75.14
2017-10-04T17:35:46.521Z,75.37
2017-10-04T17:38:21.099Z,75.29
2017-10-04T17:40:55.774Z,75.11
2017-10-04T17:43:30.255Z,75.46
2017-10-04T17:46:05.000Z,75.25
2017-10-04T17:48:39.856Z,75.22
2017-10-04T17:51:15.218Z,75.79
2017-10-04T17:53:49.816Z,75.87
2017-10-04T17:56:24.581Z,75.61
2017-10-04T17:58:59.327Z,75.68
2017-10-04T18:01:33.997Z,75.76
2017-10-04T18:04:08.635Z,75.65
2017-10-04T18:06:43.296Z,75.52
2017-10-04T18:09:18.035Z,75.28
2017-10-04T18:11:53.727Z,75.52
2017-10-04T18:14:28.438Z,75.63
2017-10-04T18:17:04.654Z,75.56
2017-10-04T18:19:39.731Z,75.97
2017-10-04T18:22:14.548Z,75.78
2017-10-04T18:24:49.379Z,75.45
2017-10-04T18:27:24.152Z,75.50
2017-10-04T18:29:58.588Z,75.87
2017-10-04T18:32:33.378Z,75.54
2017-10-04T18:35:08.019Z,75.79
2017-10-04T18:37:42.794Z,75.65
2017-10-04T18:40:17.284Z,75.75
2017-10-04T18:42:52.026Z,75.89
2017-10-04T18:45:26.512Z,75.57
2017-10-04T18:48:01.088Z,75.87
2017-10-04T18:50:35.722Z,76.47
2017-10-04T18:53:10.391Z,76.06
2017-10-04T18:55:45.023Z,75.99
2017-10-04T18:58:19.776Z,76.15
2017-10-04T19:00:54.411Z,75.72
2017-10-04T19:03:29.127Z,76.07
2017-10-04T19:06:03.655Z,76.35
2017-10-04T19:08:38.276Z,76.42
2017-10-04T19:11:12.972Z,76.92
2017-10-04T19:13:47.658Z,76.98
2017-10-04T19:16:22.428Z,76.84
2017-10-04T19:18:57.322Z,76.87
2017-10-04T19:21:31.893Z,76.99
2017-10-04T19:24:06.607Z,77.13
2017-10-04T19:26:41.231Z,77.30
2017-10-04T19:29:15.820Z,77.68
2017-10-04T19:31:50.365Z,77.28
2017-10-04T19:34:25.271Z,77.55
2017-10-04T19:36:59.721Z,77.45
2017-10-04T19:39:34.456Z,77.08
2017-10-04T19:42:09.107Z,77.05
2017-10-04T19:44:43.693Z,77.57
2017-10-04T19:47:18.248Z,77.40
2017-10-04T19:52:51.579Z,77.40
2017-10-04T19:55:26.951Z,77.48
2017-10-04T19:58:01.677Z,77.58
2017-10-04T20:00:36.313Z,77.67
2017-10-04T20:03:11.108Z,77.57
2017-10-04T20:05:45.801Z,77.42
2017-10-04T20:08:20.245Z,77.36
2017-10-04T20:10:55.500Z,77.34
2017-10-04T20:13:30.603Z,77.25
2017-10-04T20:16:06.358Z,77.45
2017-10-04T20:18:41.007Z,77.53
2017-10-04T20:21:15.659Z,77.89
2017-10-04T20:23:50.359Z,77.70
2017-10-04T20:26:25.020Z,77.43
2017-10-04T20:28:59.643Z,77.79
2017-10-04T20:31:34.349Z,77.28
2017-10-04T20:34:09.071Z,77.86
2017-10-04T20:36:43.823Z,77.88
2017-10-04T20:39:18.332Z,77.88
2017-10-04T20:41:53.109Z,77.76
2017-10-04T20:44:27.893Z,77.90
2017-10-04T20:47:02.539Z,78.46
2017-10-04T20:49:37.374Z,78.40
2017-10-04T20:52:12.167Z,78.01
2017-10-04T20:54:46.894Z,77.91
2017-10-04T20:57:21.351Z,78.33
2017-10-04T20:59:56.380Z,78.20
2017-10-04T21:02:30.788Z,78.47
2017-10-04T21:05:05.711Z,78.64
2017-10-04T21:07:40.537Z,78.75
2017-10-04T21:10:14.955Z,78.63
2017-10-04T21:12:49.820Z,79.15
2017-10-04T21:15:24.685Z,78.82
2017-10-04T21:17:59.305Z,78.88
2017-10-04T21:20:34.483Z,79.00
2017-10-04T21:23:09.331Z,78.71
2017-10-04T21:25:44.991Z,78.95
2017-10-04T21:28:19.588Z,79.22
2017-10-04T21:30:54.555Z,79.11
2017-10-04T21:33:29.157Z,79.56
2017-10-04T21:36:03.779Z,79.18
2017-10-04T21:38:38.661Z,79.17
2017-10-04T21:41:13.765Z,78.71
2017-10-04T21:43:48.402Z,79.04
2017-10-04T21:46:23.129Z,79.22
2017-10-04T21:48:58.034Z,78.99
2017-10-04T21:51:32.799Z,79.35
2017-10-04T21:54:07.679Z,79.71
2017-10-04T21:56:42.145Z,79.49
2017-10-04T21:59:16.891Z,79.57
2017-10-04T22:01:51.889Z,79.98
2017-10-04T22:04:26.468Z,79.55
2017-10-04T22:07:01.149Z,79.87
2017-10-04T22:09:36.037Z,80.09
2017-10-04T22:12:10.880Z,80.07
2017-10-04T22:14:45.628Z,80.38
2017-10-04T22:17:20.386Z,80.36
2017-10-04T22:19:55.103Z,81.05
2017-10-04T22:22:29.645Z,81.08
2017-10-04T22:25:05.044Z,81.57
2017-10-04T22:27:39.799Z,81.93
2017-10-04T22:30:14.641Z,82.42
2017-10-04T22:32:49.452Z,82.87
2017-10-04T22:35:24.408Z,83.11
2017-10-04T22:37:59.253Z,83.33
2017-10-04T22:40:33.995Z,83.99
2017-10-04T22:43:08.615Z,84.75
2017-10-04T22:45:43.527Z,85.37
2017-10-04T22:48:18.452Z,85.06
2017-10-04T22:50:53.171Z,85.02
2017-10-04T22:53:28.041Z,85.39
2017-10-04T22:56:04.337Z,86.26
2017-10-04T22:58:39.621Z,86.20
2017-10-04T23:01:14.468Z,86.47
2017-10-04T23:03:49.165Z,86.49
2017-10-04T23:06:23.824Z,86.94
2017-10-04T23:08:58.629Z,86.96
2017-10-04T23:11:33.418Z,87.37
2017-10-04T23:14:08.037Z,87.37
2017-10-04T23:16:43.153Z,87.62
2017-10-04T23:19:17.532Z,87.89
2017-10-04T23:21:52.496Z,87.98
2017-10-04T23:24:27.328Z,87.86
2017-10-04T23:27:02.280Z,87.88
2017-10-04T23:29:37.389Z,87.97
2017-10-04T23:32:12.363Z,88.09
2017-10-04T23:34:47.404Z,87.86
2017-10-04T23:37:22.064Z,88.05
2017-10-04T23:39:56.914Z,87.83
2017-10-04T23:42:31.904Z,87.90
2017-10-04T23:45:06.690Z,87.96
2017-10-04T23:47:41.632Z,87.86
2017-10-04T23:50:16.408Z,88.10
2017-10-04T23:52:51.383Z,88.30
2017-10-04T23:55:26.245Z,88.45
2017-10-04T23:58:01.089Z,88.68
